| time (UTC) | temp F | wind direction | speed MPH | gust MPH | rain 1hr in | rain 24hr in | rain mn in | humidity % | barometer mb |
| 20260906011054 | 88 | 146 | 2.0 | 9.0 | 0.00 | 0.12 | 0.12 | 68 | 1011.3 |
| 20260906010552 | 89 | 155 | 2.0 | 7.0 | 0.00 | 0.12 | 0.12 | 68 | 1011.3 |
| 20260906010107 | 89 | 167 | 2.0 | 7.0 | 0.00 | 0.12 | 0.12 | 68 | 1011.3 |
| 20260906005552 | 89 | 144 | 4.0 | 7.0 | 0.00 | 0.12 | 0.12 | 67 | 1011.3 |
| 20260906005055 | 89 | 141 | 2.0 | 12.0 | 0.00 | 0.12 | 0.12 | 67 | 1011.3 |
| 20260906004603 | 89 | 143 | 5.0 | 12.0 | 0.00 | 0.12 | 0.12 | 67 | 1011.3 |
| 20260906004053 | 90 | 168 | 3.0 | 11.0 | 0.00 | 0.12 | 0.12 | 66 | 1011.4 |
| 20260906003552 | 90 | 173 | 4.0 | 11.0 | 0.00 | 0.12 | 0.12 | 66 | 1011.6 |
| 20260906003059 | 90 | 175 | 3.0 | 9.0 | 0.00 | 0.12 | 0.12 | 66 | 1011.5 |
| 20260906002555 | 91 | 147 | 1.0 | 9.0 | 0.00 | 0.12 | 0.12 | 65 | 1011.6 |
| 20260906002054 | 91 | 120 | 2.0 | 9.0 | 0.00 | 0.12 | 0.12 | 65 | 1011.5 |
| 20260906001605 | 91 | 65 | 2.0 | 10.0 | 0.00 | 0.12 | 0.12 | 64 | 1011.5 |
| 20260906001056 | 91 | 0 | 3.0 | 11.0 | 0.00 | 0.12 | 0.12 | 64 | 1011.5 |
| 20260906000552 | 92 | 121 | 3.0 | 11.0 | 0.00 | 0.12 | 0.12 | 64 | 1011.5 |
| 20260906000112 | 92 | 148 | 4.0 | 11.0 | 0.00 | 0.12 | 0.12 | 63 | 1011.5 |
| 20260905235552 | 92 | 157 | 3.0 | 12.0 | 0.00 | 0.12 | 0.12 | 63 | 1011.5 |
| 20260905235052 | 93 | 166 | 4.0 | 12.0 | 0.00 | 0.12 | 0.12 | 62 | 1011.5 |
| 20260905234621 | 93 | 155 | 3.0 | 12.0 | 0.00 | 0.12 | 0.12 | 62 | 1011.4 |
| 20260905234053 | 93 | 117 | 4.0 | 12.0 | 0.00 | 0.12 | 0.12 | 61 | 1011.3 |
| 20260905233552 | 93 | 157 | 5.0 | 12.0 | 0.00 | 0.12 | 0.12 | 60 | 1011.3 |
| 20260905233056 | 93 | 186 | 4.0 | 10.0 | 0.00 | 0.12 | 0.12 | 59 | 1011.3 |
| 20260905232552 | 93 | 125 | 3.0 | 12.0 | 0.00 | 0.12 | 0.12 | 58 | 1011.3 |
| 20260905232052 | 93 | 159 | 6.0 | 12.0 | 0.00 | 0.12 | 0.12 | 57 | 1011.2 |
| 20260905231607 | 94 | 154 | 4.0 | 12.0 | 0.00 | 0.12 | 0.12 | 57 | 1011.2 |
| 20260905231052 | 94 | 101 | 4.0 | 10.0 | 0.00 | 0.12 | 0.12 | 56 | 1011.2 |
| 20260905230552 | 95 | 150 | 5.0 | 10.0 | 0.00 | 0.12 | 0.12 | 56 | 1011.2 |
| 20260905230104 | 95 | 84 | 4.0 | 12.0 | 0.00 | 0.12 | 0.12 | 55 | 1011.0 |
| 20260905225552 | 96 | 143 | 4.0 | 12.0 | 0.00 | 0.12 | 0.12 | 54 | 1010.9 |
| 20260905225052 | 96 | 142 | 6.0 | 12.0 | 0.00 | 0.12 | 0.12 | 53 | 1010.9 |
| 20260905224617 | 97 | 144 | 2.0 | 11.0 | 0.00 | 0.12 | 0.12 | 52 | 1010.9 |
| 20260905224052 | 97 | 138 | 4.0 | 10.0 | 0.00 | 0.12 | 0.12 | 51 | 1010.9 |
| 20260905223552 | 97 | 76 | 2.0 | 7.0 | 0.00 | 0.12 | 0.12 | 50 | 1010.8 |
| 20260905223106 | 97 | 102 | 3.0 | 7.0 | 0.00 | 0.12 | 0.12 | 49 | 1010.9 |
| 20260905222554 | 97 | 0 | 1.0 | 6.0 | 0.00 | 0.12 | 0.12 | 51 | 1010.9 |
| 20260905222052 | 97 | 132 | 1.0 | 7.0 | 0.00 | 0.12 | 0.12 | 52 | 1010.9 |
| 20260905221601 | 97 | 148 | 2.0 | 9.0 | 0.00 | 0.12 | 0.12 | 51 | 1010.8 |
| 20260905221056 | 97 | 108 | 2.0 | 9.0 | 0.00 | 0.12 | 0.12 | 51 | 1010.9 |
| 20260905220553 | 97 | 161 | 2.0 | 9.0 | 0.00 | 0.12 | 0.12 | 52 | 1010.9 |
| 20260905215552 | 98 | 150 | 4.0 | 12.0 | 0.00 | 0.12 | 0.12 | 50 | 1011.0 |
| 20260905215052 | 98 | 153 | 2.0 | 10.0 | 0.00 | 0.12 | 0.12 | 51 | 1010.9 |
| 20260905214605 | 98 | 161 | 3.0 | 10.0 | 0.00 | 0.12 | 0.12 | 52 | 1011.1 |
| 20260905214143 | 98 | 150 | 1.0 | 9.0 | 0.00 | 0.12 | 0.12 | 51 | 1011.1 |
| 20260905213551 | 97 | 92 | 3.0 | 11.0 | 0.00 | 0.12 | 0.12 | 52 | 1011.2 |
| 20260905213101 | 97 | 94 | 5.0 | 11.0 | 0.00 | 0.12 | 0.12 | 52 | 1011.2 |
| 20260905212552 | 98 | 95 | 3.0 | 9.0 | 0.00 | 0.12 | 0.12 | 51 | 1011.2 |
| 20260905212056 | 97 | 29 | 3.0 | 6.0 | 0.00 | 0.12 | 0.12 | 51 | 1011.1 |
| 20260905211556 | 97 | 140 | 0.0 | 5.0 | 0.00 | 0.12 | 0.12 | 50 | 1011.1 |
| 20260905211055 | 97 | 147 | 1.0 | 6.0 | 0.00 | 0.12 | 0.12 | 52 | 1011.2 |
| 20260905210551 | 96 | 0 | 2.0 | 7.0 | 0.00 | 0.12 | 0.12 | 52 | 1011.3 |
| 20260905210109 | 96 | 123 | 3.0 | 8.0 | 0.00 | 0.12 | 0.12 | 52 | 1011.3 |
| 20260905205555 | 96 | 205 | 4.0 | 8.0 | 0.00 | 0.13 | 0.12 | 53 | 1011.3 |
| 20260905205052 | 95 | 174 | 2.0 | 8.0 | 0.00 | 0.13 | 0.12 | 53 | 1011.5 |
| 20260905204601 | 95 | 0 | 3.0 | 8.0 | 0.00 | 0.13 | 0.12 | 55 | 1011.5 |
| 20260905204053 | 95 | 82 | 2.0 | 5.0 | 0.00 | 0.13 | 0.12 | 54 | 1011.8 |
| 20260905203556 | 95 | 284 | 2.0 | 5.0 | 0.00 | 0.13 | 0.12 | 59 | 1011.8 |
| 20260905203111 | 94 | 246 | 2.0 | 5.0 | 0.00 | 0.13 | 0.12 | 59 | 1012.0 |
| 20260905202551 | 93 | 321 | 2.0 | 5.0 | 0.00 | 0.13 | 0.12 | 61 | 1011.9 |
| 20260905202052 | 92 | 288 | 0.0 | 4.0 | 0.00 | 0.13 | 0.12 | 62 | 1012.0 |
| 20260905201557 | 92 | 0 | 0.0 | 4.0 | 0.00 | 0.13 | 0.12 | 64 | 1012.1 |
| 20260905201051 | 90 | 263 | 0.0 | 4.0 | 0.00 | 0.13 | 0.12 | 69 | 1012.2 |
| 20260905200551 | 87 | 0 | 0.0 | 2.0 | 0.00 | 0.13 | 0.12 | 70 | 1012.4 |
| 20260905195551 | 85 | 0 | 0.0 | 0.0 | 0.00 | 0.13 | 0.12 | 76 | 1012.6 |
| 20260905195051 | 84 | 0 | 0.0 | 0.0 | 0.02 | 0.13 | 0.12 | 80 | 1012.8 |
| 20260905194603 | 83 | 0 | 0.0 | 4.0 | 0.07 | 0.13 | 0.12 | 82 | 1012.8 |
| 20260905194052 | 83 | 0 | 0.0 | 4.0 | 0.10 | 0.13 | 0.12 | 86 | 1012.9 |
| 20260905193555 | 81 | 263 | 1.0 | 6.0 | 0.11 | 0.13 | 0.12 | 86 | 1013.0 |
| 20260905193102 | 81 | 265 | 1.0 | 6.0 | 0.12 | 0.13 | 0.12 | 85 | 1013.1 |
| 20260905192555 | 81 | 257 | 2.0 | 4.0 | 0.12 | 0.13 | 0.12 | 85 | 1013.1 |
| 20260905192051 | 80 | 256 | 1.0 | 7.0 | 0.12 | 0.13 | 0.12 | 84 | 1013.2 |
| 20260905191604 | 80 | 255 | 2.0 | 9.0 | 0.12 | 0.13 | 0.12 | 83 | 1013.3 |
| 20260905191051 | 80 | 257 | 5.0 | 15.0 | 0.12 | 0.13 | 0.12 | 82 | 1013.4 |
| 20260905190551 | 81 | 216 | 5.0 | 15.0 | 0.12 | 0.13 | 0.12 | 80 | 1013.6 |
| 20260905190103 | 81 | 215 | 7.0 | 17.0 | 0.12 | 0.13 | 0.12 | 78 | 1013.6 |
| 20260905185551 | 82 | 255 | 11.0 | 17.0 | 0.12 | 0.13 | 0.12 | 75 | 1013.6 |
| 20260905185052 | 82 | 254 | 8.0 | 24.0 | 0.10 | 0.11 | 0.10 | 76 | 1013.9 |
| 20260905184606 | 83 | 259 | 10.0 | 24.0 | 0.05 | 0.06 | 0.05 | 74 | 1013.9 |
| 20260905184052 | 85 | 239 | 10.0 | 26.0 | 0.02 | 0.03 | 0.02 | 72 | 1013.8 |
| 20260905183554 | 87 | 231 | 12.0 | 26.0 | 0.01 | 0.02 | 0.01 | 67 | 1013.9 |
| 20260905183107 | 91 | 255 | 12.0 | 22.0 | 0.00 | 0.01 | 0.00 | 66 | 1013.7 |
| 20260905182551 | 92 | 69 | 0.0 | 8.0 | 0.00 | 0.01 | 0.00 | 62 | 1013.7 |
| 20260905182052 | 93 | 80 | 2.0 | 8.0 | 0.00 | 0.01 | 0.00 | 62 | 1013.6 |
| 20260905181602 | 93 | 65 | 0.0 | 10.0 | 0.00 | 0.01 | 0.00 | 62 | 1013.7 |
| 20260905181051 | 93 | 80 | 4.0 | 10.0 | 0.00 | 0.01 | 0.00 | 61 | 1013.8 |
| 20260905180551 | 93 | 59 | 1.0 | 5.0 | 0.00 | 0.01 | 0.00 | 61 | 1013.9 |
| 20260905180100 | 94 | 90 | 1.0 | 10.0 | 0.00 | 0.01 | 0.00 | 59 | 1014.1 |
| 20260905175553 | 94 | 0 | 1.0 | 10.0 | 0.00 | 0.01 | 0.00 | 60 | 1014.0 |
| 20260905175052 | 94 | 43 | 4.0 | 10.0 | 0.00 | 0.01 | 0.00 | 61 | 1013.9 |
| 20260905174604 | 93 | 261 | 4.0 | 8.0 | 0.00 | 0.01 | 0.00 | 62 | 1014.1 |
| 20260905174051 | 92 | 5 | 3.0 | 8.0 | 0.00 | 0.01 | 0.00 | 65 | 1014.1 |
| 20260905173552 | 92 | 29 | 4.0 | 8.0 | 0.00 | 0.01 | 0.00 | 65 | 1014.3 |
| 20260905173102 | 91 | 85 | 4.0 | 8.0 | 0.00 | 0.01 | 0.00 | 67 | 1014.3 |
| 20260905172555 | 91 | 61 | 3.0 | 7.0 | 0.00 | 0.01 | 0.00 | 68 | 1014.3 |
| 20260905172051 | 90 | 42 | 1.0 | 3.0 | 0.00 | 0.01 | 0.00 | 68 | 1014.5 |
| 20260905171635 | 90 | 279 | 1.0 | 6.0 | 0.00 | 0.01 | 0.00 | 68 | 1014.5 |
| 20260905171052 | 90 | 0 | 2.0 | 6.0 | 0.00 | 0.01 | 0.00 | 68 | 1014.6 |
| 20260905170552 | 90 | 288 | 1.0 | 6.0 | 0.00 | 0.01 | 0.00 | 72 | 1014.6 |
| 20260905170105 | 90 | 0 | 2.0 | 8.0 | 0.00 | 0.01 | 0.00 | 73 | 1014.8 |
| 20260905165551 | 90 | 253 | 2.0 | 12.0 | 0.00 | 0.01 | 0.00 | 74 | 1015.0 |
| 20260905165051 | 90 | 205 | 7.0 | 12.0 | 0.00 | 0.01 | 0.00 | 72 | 1015.1 |
| 20260905164605 | 91 | 213 | 3.0 | 8.0 | 0.00 | 0.01 | 0.00 | 70 | 1015.0 |
| 20260905164051 | 92 | 235 | 3.0 | 8.0 | 0.00 | 0.01 | 0.00 | 67 | 1015.0 |
| 20260905163551 | 92 | 233 | 2.0 | 9.0 | 0.00 | 0.01 | 0.00 | 67 | 1015.0 |
| 20260905163104 | 93 | 258 | 6.0 | 9.0 | 0.00 | 0.01 | 0.00 | 67 | 1015.0 |
| 20260905162554 | 93 | 225 | 5.0 | 9.0 | 0.00 | 0.01 | 0.00 | 68 | 1014.9 |
| 20260905162052 | 93 | 273 | 5.0 | 9.0 | 0.00 | 0.01 | 0.00 | 68 | 1014.9 |
| 20260905161558 | 93 | 0 | 2.0 | 5.0 | 0.00 | 0.01 | 0.00 | 69 | 1014.9 |
| 20260905161052 | 91 | 196 | 2.0 | 6.0 | 0.00 | 0.01 | 0.00 | 71 | 1014.8 |
| 20260905160551 | 90 | 301 | 3.0 | 6.0 | 0.00 | 0.01 | 0.00 | 71 | 1014.9 |
| 20260905160107 | 90 | 196 | 3.0 | 5.0 | 0.00 | 0.01 | 0.00 | 73 | 1014.8 |
| 20260905155552 | 89 | 255 | 1.0 | 4.0 | 0.00 | 0.01 | 0.00 | 73 | 1014.8 |
| 20260905155054 | 89 | 32 | 1.0 | 4.0 | 0.00 | 0.01 | 0.00 | 75 | 1014.9 |
| 20260905154641 | 89 | 0 | 1.0 | 4.0 | 0.00 | 0.01 | 0.00 | 75 | 1015.0 |
| 20260905154051 | 89 | 0 | 2.0 | 8.0 | 0.00 | 0.01 | 0.00 | 75 | 1015.0 |
| 20260905153551 | 89 | 205 | 0.0 | 9.0 | 0.00 | 0.01 | 0.00 | 76 | 1015.0 |
| 20260905153104 | 89 | 205 | 4.0 | 9.0 | 0.00 | 0.01 | 0.00 | 76 | 1015.0 |
| 20260905152551 | 89 | 234 | 3.0 | 8.0 | 0.00 | 0.01 | 0.00 | 78 | 1015.0 |
| 20260905152051 | 88 | 132 | 3.0 | 10.0 | 0.00 | 0.01 | 0.00 | 79 | 1015.0 |
| 20260905151601 | 88 | 203 | 4.0 | 11.0 | 0.00 | 0.01 | 0.00 | 79 | 1015.0 |
| 20260905151052 | 87 | 193 | 3.0 | 11.0 | 0.00 | 0.01 | 0.00 | 80 | 1015.0 |
| 20260905150552 | 87 | 0 | 4.0 | 7.0 | 0.00 | 0.01 | 0.00 | 80 | 1015.0 |
| 20260905150105 | 87 | 159 | 2.0 | 7.0 | 0.00 | 0.01 | 0.00 | 81 | 1015.0 |
| 20260905145553 | 86 | 243 | 3.0 | 7.0 | 0.00 | 0.01 | 0.00 | 83 | 1014.9 |
| 20260905145051 | 86 | 0 | 1.0 | 6.0 | 0.00 | 0.01 | 0.00 | 85 | 1015.0 |
| 20260905144610 | 85 | 155 | 2.0 | 6.0 | 0.00 | 0.01 | 0.00 | 87 | 1014.9 |
| 20260905144051 | 85 | 205 | 1.0 | 6.0 | 0.00 | 0.01 | 0.00 | 89 | 1015.0 |
| 20260905143551 | 84 | 0 | 0.0 | 0.0 | 0.00 | 0.01 | 0.00 | 90 | 1015.0 |
| 20260905143106 | 83 | 0 | 0.0 | 3.0 | 0.00 | 0.01 | 0.00 | 91 | 1014.9 |
| 20260905142552 | 83 | 0 | 0.0 | 4.0 | 0.00 | 0.01 | 0.00 | 92 | 1015.0 |
| 20260905142051 | 82 | 0 | 1.0 | 4.0 | 0.00 | 0.01 | 0.00 | 92 | 1015.1 |
| 20260905141557 | 82 | 112 | 1.0 | 6.0 | 0.00 | 0.01 | 0.00 | 93 | 1015.0 |
| 20260905141051 | 81 | 106 | 2.0 | 6.0 | 0.00 | 0.01 | 0.00 | 93 | 1015.1 |
| 20260905140552 | 81 | 125 | 1.0 | 6.0 | 0.00 | 0.01 | 0.00 | 94 | 1015.2 |
| 20260905140105 | 80 | 98 | 1.0 | 6.0 | 0.00 | 0.01 | 0.00 | 94 | 1015.3 |
| 20260905135551 | 80 | 0 | 0.0 | 0.0 | 0.00 | 0.01 | 0.00 | 94 | 1015.3 |
| 20260905135054 | 80 | 0 | 0.0 | 4.0 | 0.00 | 0.01 | 0.00 | 94 | 1015.1 |
| 20260905134608 | 79 | 0 | 0.0 | 4.0 | 0.00 | 0.01 | 0.00 | 94 | 1015.0 |
| 20260905134051 | 79 | 165 | 0.0 | 4.0 | 0.00 | 0.01 | 0.00 | 94 | 1015.0 |
| 20260905133554 | 78 | 168 | 0.0 | 2.0 | 0.00 | 0.01 | 0.00 | 94 | 1014.9 |
| 20260905133101 | 78 | 0 | 0.0 | 2.0 | 0.00 | 0.01 | 0.00 | 94 | 1014.9 |
| 20260905132552 | 77 | 0 | 0.0 | 1.0 | 0.00 | 0.01 | 0.00 | 94 | 1014.9 |
| 20260905132052 | 77 | 0 | 0.0 | 0.0 | 0.00 | 0.01 | 0.00 | 94 | 1014.9 |
| 20260905131605 | 76 | 0 | 0.0 | 0.0 | 0.00 | 0.01 | 0.00 | 94 | 1014.9 |
| 20260905131051 | 75 | 0 | 0.0 | 0.0 | 0.00 | 0.01 | 0.00 | 94 | 1014.7 |
| 20260905130557 | 75 | 0 | 0.0 | 0.0 | 0.00 | 0.01 | 0.00 | 93 | 1014.7 |
| 20260905125552 | 74 | 0 | 0.0 | 0.0 | 0.00 | 0.01 | 0.00 | 94 | 1014.7 |
| 20260905125052 | 74 | 0 | 0.0 | 0.0 | 0.00 | 0.01 | 0.00 | 93 | 1014.6 |
| 20260905124558 | 74 | 0 | 0.0 | 0.0 | 0.00 | 0.01 | 0.00 | 93 | 1014.6 |
| 20260905124052 | 74 | 0 | 0.0 | 0.0 | 0.00 | 0.01 | 0.00 | 93 | 1014.3 |
| 20260905123552 | 74 | 0 | 0.0 | 0.0 | 0.00 | 0.01 | 0.00 | 93 | 1014.3 |
| 20260905123104 | 74 | 0 | 0.0 | 0.0 | 0.00 | 0.01 | 0.00 | 93 | 1014.3 |
| 20260905122551 | 74 | 0 | 0.0 | 0.0 | 0.00 | 0.01 | 0.00 | 93 | 1014.3 |
| 20260905122051 | 74 | 0 | 0.0 | 0.0 | 0.00 | 0.01 | 0.00 | 93 | 1014.0 |
| 20260905121608 | 74 | 0 | 0.0 | 0.0 | 0.00 | 0.01 | 0.00 | 92 | 1013.9 |
| 20260905121051 | 74 | 0 | 0.0 | 0.0 | 0.00 | 0.01 | 0.00 | 93 | 1013.9 |
| 20260905120551 | 74 | 0 | 0.0 | 0.0 | 0.00 | 0.01 | 0.00 | 92 | 1013.8 |
| 20260905120059 | 74 | 0 | 0.0 | 0.0 | 0.00 | 0.01 | 0.00 | 92 | 1013.8 |
| 20260905115552 | 74 | 0 | 0.0 | 0.0 | 0.00 | 0.01 | 0.00 | 92 | 1013.8 |
| 20260905115052 | 74 | 0 | 0.0 | 0.0 | 0.00 | 0.01 | 0.00 | 92 | 1013.7 |
| 20260905114610 | 74 | 0 | 0.0 | 0.0 | 0.00 | 0.01 | 0.00 | 92 | 1013.7 |
| 20260905114051 | 74 | 0 | 0.0 | 0.0 | 0.00 | 0.01 | 0.00 | 92 | 1013.5 |
| 20260905113552 | 74 | 0 | 0.0 | 0.0 | 0.00 | 0.01 | 0.00 | 92 | 1013.6 |
| 20260905113101 | 74 | 0 | 0.0 | 0.0 | 0.00 | 0.01 | 0.00 | 92 | 1013.6 |
| 20260905112551 | 74 | 0 | 0.0 | 0.0 | 0.00 | 0.01 | 0.00 | 92 | 1013.6 |
| 20260905112052 | 74 | 0 | 0.0 | 0.0 | 0.00 | 0.01 | 0.00 | 92 | 1013.6 |
| 20260905111628 | 74 | 0 | 0.0 | 0.0 | 0.00 | 0.01 | 0.00 | 92 | 1013.6 |
| 20260905111055 | 74 | 0 | 0.0 | 0.0 | 0.00 | 0.01 | 0.00 | 92 | 1013.6 |
| 20260905110554 | 74 | 0 | 0.0 | 0.0 | 0.00 | 0.01 | 0.00 | 92 | 1013.6 |
| 20260905110107 | 74 | 0 | 0.0 | 0.0 | 0.00 | 0.01 | 0.00 | 92 | 1013.6 |
| 20260905105552 | 74 | 0 | 0.0 | 0.0 | 0.00 | 0.01 | 0.00 | 92 | 1013.6 |
| 20260905105055 | 74 | 0 | 0.0 | 0.0 | 0.00 | 0.01 | 0.00 | 92 | 1013.7 |
| 20260905104619 | 74 | 0 | 0.0 | 0.0 | 0.00 | 0.01 | 0.00 | 92 | 1013.6 |
| 20260905104052 | 74 | 0 | 0.0 | 0.0 | 0.00 | 0.01 | 0.00 | 92 | 1013.4 |
| 20260905103551 | 74 | 0 | 0.0 | 0.0 | 0.00 | 0.01 | 0.00 | 92 | 1013.4 |
| 20260905103104 | 74 | 0 | 0.0 | 0.0 | 0.00 | 0.01 | 0.00 | 92 | 1013.4 |
| 20260905102552 | 74 | 0 | 0.0 | 0.0 | 0.00 | 0.01 | 0.00 | 92 | 1013.4 |
| 20260905102051 | 74 | 0 | 0.0 | 0.0 | 0.00 | 0.01 | 0.00 | 92 | 1013.4 |
| 20260905101602 | 74 | 0 | 0.0 | 0.0 | 0.00 | 0.01 | 0.00 | 92 | 1013.4 |
| 20260905101054 | 75 | 0 | 0.0 | 0.0 | 0.00 | 0.01 | 0.00 | 92 | 1013.5 |
| 20260905100551 | 75 | 0 | 0.0 | 0.0 | 0.00 | 0.01 | 0.00 | 92 | 1013.4 |
| 20260905100105 | 75 | 0 | 0.0 | 0.0 | 0.00 | 0.01 | 0.00 | 92 | 1013.3 |
| 20260905095557 | 75 | 0 | 0.0 | 0.0 | 0.00 | 0.01 | 0.00 | 92 | 1013.3 |
| 20260905095051 | 75 | 0 | 0.0 | 0.0 | 0.00 | 0.01 | 0.00 | 92 | 1013.1 |
| 20260905094719 | 75 | 0 | 0.0 | 0.0 | 0.00 | 0.01 | 0.00 | 92 | 1013.2 |
| 20260905094051 | 75 | 0 | 0.0 | 0.0 | 0.00 | 0.01 | 0.00 | 92 | 1013.3 |
| 20260905093551 | 75 | 0 | 0.0 | 0.0 | 0.00 | 0.01 | 0.00 | 92 | 1013.2 |
| 20260905093126 | 76 | 0 | 0.0 | 0.0 | 0.00 | 0.01 | 0.00 | 92 | 1013.2 |
| 20260905092554 | 76 | 0 | 0.0 | 0.0 | 0.00 | 0.01 | 0.00 | 92 | 1013.1 |
| 20260905092051 | 76 | 0 | 0.0 | 0.0 | 0.00 | 0.01 | 0.00 | 92 | 1013.1 |
| 20260905091602 | 76 | 0 | 0.0 | 0.0 | 0.00 | 0.01 | 0.00 | 92 | 1013.2 |
| 20260905091055 | 76 | 0 | 0.0 | 0.0 | 0.00 | 0.01 | 0.00 | 92 | 1013.3 |
| 20260905090554 | 76 | 0 | 0.0 | 0.0 | 0.00 | 0.01 | 0.00 | 92 | 1013.2 |
| 20260905085555 | 76 | 0 | 0.0 | 1.0 | 0.00 | 0.01 | 0.00 | 92 | 1013.4 |
| 20260905085052 | 76 | 0 | 0.0 | 0.0 | 0.00 | 0.01 | 0.00 | 92 | 1013.2 |
| 20260905084608 | 76 | 0 | 0.0 | 0.0 | 0.00 | 0.01 | 0.00 | 91 | 1013.3 |
| 20260905084052 | 76 | 0 | 0.0 | 0.0 | 0.00 | 0.01 | 0.00 | 91 | 1013.3 |
| 20260905083552 | 76 | 0 | 0.0 | 0.0 | 0.00 | 0.01 | 0.00 | 91 | 1013.2 |
| 20260905083056 | 76 | 0 | 0.0 | 0.0 | 0.00 | 0.01 | 0.00 | 91 | 1013.2 |
| 20260905082551 | 76 | 0 | 0.0 | 0.0 | 0.00 | 0.01 | 0.00 | 91 | 1013.2 |
| 20260905082057 | 76 | 0 | 0.0 | 0.0 | 0.00 | 0.01 | 0.00 | 91 | 1013.2 |
| 20260905081557 | 76 | 0 | 0.0 | 0.0 | 0.00 | 0.01 | 0.00 | 90 | 1013.2 |
| 20260905081054 | 76 | 0 | 0.0 | 0.0 | 0.00 | 0.01 | 0.00 | 90 | 1013.2 |
| 20260905080557 | 76 | 0 | 0.0 | 0.0 | 0.00 | 0.01 | 0.00 | 90 | 1013.3 |
| 20260905080118 | 76 | 0 | 0.0 | 0.0 | 0.00 | 0.01 | 0.00 | 90 | 1013.2 |
| 20260905075551 | 77 | 0 | 0.0 | 0.0 | 0.00 | 0.01 | 0.00 | 90 | 1013.2 |
| 20260905075051 | 77 | 0 | 0.0 | 0.0 | 0.00 | 0.01 | 0.00 | 90 | 1013.2 |
| 20260905074606 | 77 | 0 | 0.0 | 0.0 | 0.00 | 0.01 | 0.00 | 90 | 1013.2 |
| 20260905074050 | 77 | 0 | 0.0 | 0.0 | 0.00 | 0.01 | 0.00 | 90 | 1013.2 |
| 20260905073551 | 77 | 0 | 0.0 | 0.0 | 0.00 | 0.01 | 0.00 | 90 | 1013.4 |
| 20260905073110 | 77 | 0 | 0.0 | 0.0 | 0.00 | 0.01 | 0.00 | 90 | 1013.5 |
| 20260905072555 | 77 | 0 | 0.0 | 0.0 | 0.00 | 0.01 | 0.00 | 90 | 1013.5 |
| 20260905072057 | 77 | 0 | 0.0 | 0.0 | 0.00 | 0.01 | 0.00 | 90 | 1013.6 |
| 20260905071556 | 77 | 0 | 0.0 | 0.0 | 0.00 | 0.01 | 0.00 | 90 | 1013.7 |
| 20260905071054 | 78 | 0 | 0.0 | 0.0 | 0.00 | 0.01 | 0.00 | 90 | 1013.7 |
| 20260905070554 | 78 | 0 | 0.0 | 0.0 | 0.00 | 0.01 | 0.00 | 90 | 1013.9 |
| 20260905070105 | 78 | 0 | 0.0 | 2.0 | 0.00 | 0.01 | 0.00 | 90 | 1013.7 |
| 20260905065553 | 78 | 0 | 0.0 | 2.0 | 0.00 | 0.01 | 0.00 | 90 | 1013.9 |
| 20260905065051 | 78 | 183 | 0.0 | 0.0 | 0.00 | 0.01 | 0.00 | 90 | 1013.9 |
| 20260905064600 | 78 | 0 | 0.0 | 0.0 | 0.00 | 0.01 | 0.00 | 89 | 1013.8 |
| 20260905064055 | 78 | 0 | 0.0 | 2.0 | 0.00 | 0.01 | 0.00 | 89 | 1013.7 |
| 20260905063553 | 78 | 0 | 0.0 | 2.0 | 0.00 | 0.01 | 0.00 | 89 | 1013.7 |
| 20260905063106 | 78 | 0 | 0.0 | 0.0 | 0.00 | 0.01 | 0.00 | 89 | 1013.9 |
| 20260905062552 | 78 | 0 | 0.0 | 0.0 | 0.00 | 0.01 | 0.00 | 89 | 1013.9 |
| 20260905062052 | 78 | 0 | 0.0 | 0.0 | 0.00 | 0.01 | 0.00 | 89 | 1014.0 |
| 20260905061605 | 78 | 0 | 0.0 | 0.0 | 0.00 | 0.01 | 0.00 | 89 | 1013.9 |
| 20260905061055 | 79 | 0 | 0.0 | 0.0 | 0.00 | 0.01 | 0.00 | 89 | 1014.0 |
| 20260905060552 | 79 | 0 | 0.0 | 0.0 | 0.00 | 0.01 | 0.00 | 89 | 1013.9 |
| 20260905060109 | 79 | 0 | 0.0 | 0.0 | 0.00 | 0.01 | 0.00 | 89 | 1013.7 |
| 20260905055554 | 79 | 0 | 0.0 | 0.0 | 0.00 | 0.01 | 0.00 | 89 | 1013.9 |
| 20260905055053 | 79 | 0 | 0.0 | 0.0 | 0.00 | 0.01 | 0.00 | 89 | 1013.9 |
| 20260905054607 | 79 | 0 | 0.0 | 0.0 | 0.00 | 0.01 | 0.00 | 89 | 1013.9 |
| 20260905054057 | 79 | 0 | 0.0 | 3.0 | 0.00 | 0.01 | 0.00 | 89 | 1014.1 |
| 20260905053555 | 79 | 0 | 0.0 | 3.0 | 0.00 | 0.01 | 0.00 | 89 | 1014.0 |
| 20260905053058 | 79 | 183 | 0.0 | 3.0 | 0.00 | 0.01 | 0.00 | 89 | 1013.9 |
| 20260905052552 | 80 | 0 | 1.0 | 3.0 | 0.00 | 0.01 | 0.00 | 89 | 1013.8 |
| 20260905052056 | 80 | 0 | 0.0 | 3.0 | 0.00 | 0.01 | 0.00 | 89 | 1013.9 |
| 20260905051610 | 80 | 0 | 0.0 | 3.0 | 0.00 | 0.01 | 0.00 | 89 | 1013.9 |
| 20260905051056 | 80 | 183 | 0.0 | 0.0 | 0.00 | 0.01 | 0.00 | 89 | 1013.9 |
| 20260905050553 | 80 | 0 | 0.0 | 1.0 | 0.00 | 0.01 | 0.00 | 89 | 1013.9 |
| 20260905050107 | 80 | 0 | 0.0 | 2.0 | 0.00 | 0.01 | 0.00 | 89 | 1013.9 |
| 20260905045553 | 80 | 0 | 0.0 | 4.0 | 0.00 | 0.01 | 0.01 | 89 | 1014.1 |
| 20260905045053 | 80 | 0 | 0.0 | 4.0 | 0.00 | 0.01 | 0.01 | 89 | 1014.1 |
| 20260905044604 | 80 | 180 | 1.0 | 4.0 | 0.00 | 0.01 | 0.01 | 89 | 1014.2 |
| 20260905044052 | 80 | 0 | 1.0 | 4.0 | 0.00 | 0.01 | 0.01 | 88 | 1014.2 |
| 20260905043554 | 80 | 188 | 1.0 | 5.0 | 0.00 | 0.01 | 0.01 | 88 | 1014.2 |
| 20260905043059 | 80 | 187 | 2.0 | 5.0 | 0.00 | 0.01 | 0.01 | 88 | 1014.1 |
| 20260905042555 | 80 | 180 | 2.0 | 5.0 | 0.00 | 0.01 | 0.01 | 88 | 1014.1 |
| 20260905042054 | 80 | 150 | 0.0 | 3.0 | 0.00 | 0.01 | 0.01 | 88 | 1014.3 |
| 20260905041610 | 80 | 0 | 1.0 | 5.0 | 0.00 | 0.01 | 0.01 | 88 | 1014.4 |
| 20260905041053 | 80 | 143 | 1.0 | 6.0 | 0.00 | 0.01 | 0.01 | 88 | 1014.3 |
| 20260905040553 | 80 | 0 | 1.0 | 6.0 | 0.00 | 0.01 | 0.01 | 88 | 1014.3 |
| 20260905040112 | 80 | 0 | 0.0 | 5.0 | 0.00 | 0.01 | 0.01 | 88 | 1014.2 |
| 20260905035554 | 80 | 0 | 1.0 | 5.0 | 0.00 | 0.01 | 0.01 | 88 | 1014.1 |
| 20260905035053 | 80 | 159 | 1.0 | 5.0 | 0.00 | 0.01 | 0.01 | 88 | 1014.1 |
| 20260905034607 | 80 | 136 | 0.0 | 5.0 | 0.00 | 0.01 | 0.01 | 88 | 1014.3 |
| 20260905034052 | 80 | 0 | 1.0 | 5.0 | 0.00 | 0.01 | 0.01 | 88 | 1014.3 |
| 20260905033553 | 80 | 162 | 1.0 | 5.0 | 0.00 | 0.01 | 0.01 | 88 | 1014.2 |
| 20260905033109 | 80 | 154 | 2.0 | 5.0 | 0.00 | 0.01 | 0.01 | 88 | 1014.2 |
| 20260905032555 | 79 | 153 | 1.0 | 5.0 | 0.00 | 0.01 | 0.01 | 87 | 1014.2 |
| 20260905032053 | 79 | 164 | 0.0 | 3.0 | 0.00 | 0.01 | 0.01 | 86 | 1014.1 |
| 20260905031616 | 79 | 0 | 0.0 | 2.0 | 0.00 | 0.01 | 0.01 | 86 | 1014.0 |
| 20260905031053 | 79 | 0 | 0.0 | 0.0 | 0.00 | 0.01 | 0.01 | 85 | 1014.1 |
| 20260905030553 | 79 | 0 | 0.0 | 0.0 | 0.00 | 0.01 | 0.01 | 84 | 1014.1 |
| 20260905030123 | 79 | 0 | 0.0 | 0.0 | 0.00 | 0.01 | 0.01 | 84 | 1014.1 |
| 20260905025555 | 79 | 0 | 0.0 | 0.0 | 0.00 | 0.01 | 0.01 | 84 | 1014.0 |
| 20260905025053 | 79 | 0 | 0.0 | 0.0 | 0.00 | 0.01 | 0.01 | 84 | 1013.9 |
| 20260905024617 | 80 | 0 | 0.0 | 0.0 | 0.00 | 0.01 | 0.01 | 84 | 1013.9 |
| 20260905024057 | 80 | 0 | 0.0 | 0.0 | 0.00 | 0.01 | 0.01 | 84 | 1013.9 |
| 20260905023556 | 80 | 0 | 0.0 | 0.0 | 0.00 | 0.01 | 0.01 | 84 | 1013.7 |
| 20260905023108 | 80 | 0 | 0.0 | 0.0 | 0.00 | 0.01 | 0.01 | 83 | 1013.7 |
| 20260905022555 | 80 | 0 | 0.0 | 0.0 | 0.00 | 0.01 | 0.01 | 83 | 1013.7 |
| 20260905022054 | 80 | 0 | 0.0 | 0.0 | 0.00 | 0.01 | 0.01 | 83 | 1013.7 |
| 20260905021615 | 80 | 0 | 0.0 | 0.0 | 0.00 | 0.01 | 0.01 | 83 | 1013.6 |
| 20260905021054 | 81 | 0 | 0.0 | 0.0 | 0.00 | 0.01 | 0.01 | 82 | 1013.5 |
| 20260905020554 | 81 | 0 | 0.0 | 0.0 | 0.00 | 0.01 | 0.01 | 82 | 1013.4 |
| 20260905020059 | 81 | 0 | 0.0 | 0.0 | 0.00 | 0.01 | 0.01 | 82 | 1013.5 |
| 20260905015553 | 82 | 0 | 0.0 | 0.0 | 0.00 | 0.01 | 0.01 | 81 | 1013.4 |
| 20260905015053 | 82 | 0 | 0.0 | 0.0 | 0.00 | 0.01 | 0.01 | 80 | 1013.3 |
| 20260905014557 | 82 | 0 | 0.0 | 0.0 | 0.00 | 0.01 | 0.01 | 79 | 1013.3 |
| 20260905014055 | 82 | 0 | 0.0 | 0.0 | 0.00 | 0.01 | 0.01 | 79 | 1013.1 |
| 20260905013553 | 83 | 0 | 0.0 | 0.0 | 0.00 | 0.01 | 0.01 | 79 | 1013.1 |
| 20260905013117 | 83 | 0 | 0.0 | 0.0 | 0.00 | 0.01 | 0.01 | 79 | 1013.0 |
| 20260905012554 | 84 | 0 | 0.0 | 0.0 | 0.00 | 0.01 | 0.01 | 78 | 1013.1 |
| 20260905012055 | 84 | 0 | 0.0 | 0.0 | 0.00 | 0.01 | 0.01 | 77 | 1013.2 |
| 20260905011613 | 84 | 0 | 0.0 | 0.0 | 0.00 | 0.01 | 0.01 | 77 | 1013.0 |